• Join FlightAware (Why Join?)
  • Login
  • US Flag 
09:28PM EDT


 

Airport Tracker/Info


-or-


 

Live Flight TrackerFlight Track Log ✈ UAL5942 ✈ 02-May-2013 ✈ KCHS - KORD

Flight Track Log - Related Links

Times and Time Zones

All times are in EDT time to prevent confusion due to time zone crossing. See the UAL5942 flight status page for this flight to view local times or setup timezone preferences in your user account.

Time Position Orientation Groundspeed Altitude Reporting Facility
EDT Latitude Longitude Course Direction KTS MPH feet Rate Location/Type
12:03PM 33.0964 -80.1256 301° West 292 336 6,800  Level Jacksonville Center
12:04PM 33.1706 -80.1653 336° Northwest 292 336 9,400 2,160 Climbing Jacksonville Center
12:05PM 33.2444 -80.2128 332° Northwest 292 336 11,200 1,380 Climbing Jacksonville Center
12:06PM 33.3710 -80.3064 309° West  Level FlightAware Approximate
12:06PM 33.3292 -80.2725 330° Northwest 324 373 12,200  Level Jacksonville Center
12:07PM 33.4309 -80.3885 314° West  Level FlightAware Approximate
12:07PM 33.4225 -80.3392 329° Northwest 362 417 13,500  Level Jacksonville Center
12:08PM 33.4869 -80.4738 301° West  Level FlightAware Approximate
12:08PM 33.5156 -80.4039 330° Northwest 377 434 15,100  Level Jacksonville Center
12:09PM 33.6086 -80.4711 329° Northwest 387 445 16,900 1,620 Climbing Jacksonville Center
12:10PM 33.7017 -80.5333 331° Northwest 387 445 18,400 1,560 Climbing Jacksonville Center
12:11PM 33.7906 -80.6011 328° Northwest 387 445 20,100 1,560 Climbing Jacksonville Center
12:12PM 33.8856 -80.6636 331° Northwest 387 445 21,600 1,500 Climbing Jacksonville Center
12:13PM 33.9764 -80.7339 327° Northwest 387 445 23,100 1,440 Climbing Jacksonville Center
12:14PM 34.0714 -80.7992 330° Northwest 392 451 24,500 900 Climbing Jacksonville Center
12:15PM 34.1686 -80.8672 330° Northwest 392 451 25,000 660 Climbing Jacksonville Center
12:16PM 34.3389 -80.9922 329° Northwest 412 474 26,300 840 Climbing Atlanta Center
12:17PM 34.4408 -81.0692 328° Northwest 422 486 27,300 900 Climbing Atlanta Center
12:18PM 34.5322 -81.1342 330° Northwest 422 486 28,100 900 Climbing Atlanta Center
12:19PM 34.6297 -81.2064 329° Northwest 416 479 29,100 960 Climbing Atlanta Center
12:20PM 34.7294 -81.2764 330° Northwest 416 479 30,100 960 Climbing Atlanta Center
12:21PM 34.8314 -81.3514 329° Northwest 416 479 31,100 1,440 Climbing Atlanta Center
12:22PM 34.9289 -81.4217 329° Northwest 416 479 33,000 1,680 Climbing Atlanta Center
12:23PM 35.0306 -81.4997 328° Northwest 407 468 34,500 1,200 Climbing Atlanta Center
12:24PM 35.1217 -81.5681 328° Northwest 386 444 35,400 660 Climbing Atlanta Center
12:25PM 35.2147 -81.6339 330° Northwest 386 444 35,900 300 Climbing Atlanta Center
12:26PM 35.3103 -81.7075 328° Northwest 398 458 36,000  Climbing Atlanta Center
12:27PM 35.4117 -81.7836 329° Northwest 414 476 36,000  Level Atlanta Center
12:28PM 35.5175 -81.8597 330° Northwest 432 497 36,000  Level Atlanta Center
12:29PM 35.6147 -81.9311 329° Northwest 438 504 36,000  Level Atlanta Center
12:30PM 35.7225 -82.0128 328° Northwest 452 520 36,000  Level Atlanta Center
12:31PM 35.8322 -82.0922 330° Northwest 457 526 36,000  Level Atlanta Center
12:32PM 35.9419 -82.1742 329° Northwest 457 526 36,000  Level Atlanta Center
12:33PM 36.0558 -82.2614 328° Northwest 451 519 36,000  Level Atlanta Center
12:34PM 36.1508 -82.3339 328° Northwest 451 519 36,000  Level Atlanta Center
12:35PM 36.2539 -82.4142 328° Northwest 444 511 36,000  Level Atlanta Center
12:36PM 36.3636 -82.4969 329° Northwest 454 522 36,000  Level Atlanta Center
12:38PM 36.5636 -82.6483 329° Northwest 465 535 36,000  Level Indianapolis Center
12:39PM 36.6731 -82.7333 328° Northwest 462 532 36,000  Level Indianapolis Center
12:40PM 36.7856 -82.8203 328° Northwest 471 542 36,000  Level Indianapolis Center
12:41PM 36.9106 -82.9178 328° Northwest 483 556 36,000  Level Indianapolis Center
12:42PM 37.0206 -83.0039 328° Northwest 476 548 36,000  Level Indianapolis Center
12:43PM 37.1314 -83.0894 328° Northwest 467 537 36,000  Level Indianapolis Center
12:44PM 37.2422 -83.1769 328° Northwest 470 541 36,000  Level Indianapolis Center
12:45PM 37.3683 -83.2764 328° Northwest 460 529 36,000  Level Indianapolis Center
12:46PM 37.4786 -83.3619 328° Northwest 463 533 36,000  Level Indianapolis Center
12:47PM 37.5889 -83.4506 328° Northwest 469 540 36,000  Level Indianapolis Center
12:48PM 37.7006 -83.5392 328° Northwest 474 545 36,000  Level Indianapolis Center
12:49PM 37.8094 -83.6269 328° Northwest 465 535 36,000  Level Indianapolis Center
12:51PM 37.9127 -83.7098 328° Northwest  Level FlightAware Approximate
12:51PM 38.0469 -83.8167 328° Northwest 465 535 36,000  Level Indianapolis Center
12:53PM 38.1558 -83.9050 327° Northwest 464 534 36,000 -480 Level Indianapolis Center
12:54PM 38.2642 -83.9942 327° Northwest 462 532 35,100 -540 Descending Indianapolis Center
12:55PM 38.3839 -84.0522 339° North 462 532 35,000 -60 Descending Indianapolis Center
12:57PM 38.6317 -84.1581 342° North 470 541 35,000  Level Indianapolis Center
12:58PM 38.7800 -84.2222 341° North 479 551 35,000  Level Indianapolis Center
12:59PM 38.9056 -84.2758 342° North 474 545 35,000  Level Indianapolis Center
01:00PM 39.0289 -84.3261 342° North 463 533 35,000  Level Indianapolis Center
01:01PM 39.1553 -84.3814 341° North 470 541 35,000 -60 Level Indianapolis Center
01:02PM 39.2842 -84.4372 341° North 479 551 34,900  Descending Indianapolis Center
01:03PM 39.4097 -84.4919 341° North 474 545 35,000  Climbing Indianapolis Center
01:04PM 39.5336 -84.5442 342° North 464 534 35,000  Level Indianapolis Center
01:05PM 39.6592 -84.6000 341° North 469 540 35,000  Level Indianapolis Center
01:06PM 39.8061 -84.6631 342° North 471 542 35,000  Level Indianapolis Center
01:07PM 39.9317 -84.7197 341° North 471 542 35,000 -180 Level Indianapolis Center
01:08PM 40.0575 -84.7744 342° North 470 541 34,700 -540 Descending Indianapolis Center
01:09PM 40.1844 -84.8314 341° North 476 548 34,000 -360 Descending Indianapolis Center
01:10PM 40.3103 -84.8872 341° North 474 545 34,000  Level Indianapolis Center
01:11PM 40.4419 -84.9464 341° North 478 550 34,000  Level Indianapolis Center
01:12PM 40.5681 -85.0008 342° North 478 550 34,000  Level Indianapolis Center
01:13PM 40.6869 -85.0531 342° North 481 554 34,000  Level Chicago Center
01:14PM 40.8139 -85.1100 341° North 482 555 34,000  Level Chicago Center
01:15PM 40.9456 -85.2269 326° Northwest 479 551 34,000 -240 Level Chicago Center
01:16PM 41.0219 -85.3675 306° West 472 543 33,600 -1,080 Descending Chicago Center
01:17PM 41.0944 -85.5089 304° West 463 533 31,800 -2,340 Descending Chicago Center
01:18PM 41.1675 -85.6561 303° West 470 541 28,800 -2,940 Descending Chicago Center
01:19PM 41.2414 -85.8014 304° West 473 544 25,800 -1,860 Descending Chicago Center
01:20PM 41.2922 -85.9586 293° West 459 528 25,000 -420 Descending Chicago Center
01:21PM 41.3297 -86.1206 287° West 456 525 25,000  Level Chicago Center
01:22PM 41.3733 -86.3133 287° West 454 522 25,000 -540 Level Chicago Center
01:23PM 41.4100 -86.4747 287° West 454 522 23,900 -2,160 Descending Chicago Center
01:25PM 41.4450 -86.6292 287° West 439 505 20,500 -2,640 Descending Chicago Center
01:26PM 41.4781 -86.7733 287° West 430 495 18,500 -1,800 Descending Chicago Center
01:27PM 41.5111 -86.9233 286° West 426 490 16,900 -2,040 Descending Chicago Center
01:28PM 41.5478 -87.0883 287° West 390 449 14,300 -2,460 Descending Chicago Center
01:28PM 41.5667 -87.1667 288° West 391 450 13,200 -1,560 Descending Chicago TRACON
01:29PM 41.6000 -87.2833 291° West 338 389 12,000 -780 Descending Chicago TRACON
01:30PM 41.6306 -87.3236 315° West 333 383 12,000 -240 Level Chicago Center
01:31PM 41.6864 -87.4150 309° West 320 368 11,700 -780 Descending Chicago Center
01:32PM 41.7517 -87.5233 309° West 315 362 10,500 -1,080 Descending Chicago Center
01:33PM 41.8167 -87.6333 308° West 301 346 9,300 -720 Descending Chicago TRACON
01:34PM 41.8833 -87.6833 331° Northwest 294 338 9,000 -240 Descending Chicago TRACON
01:35PM 41.9500 -87.7500 323° Northwest 266 306 8,900 -480 Descending Chicago TRACON
01:36PM 42.0000 -87.8000 323° Northwest 249 287 8,100 -720 Descending Chicago TRACON
01:37PM 42.0667 -87.8333 340° North 221 254 7,600 -600 Descending Chicago TRACON
01:38PM 42.0833 -87.9000 289° West 214 246 7,000 -360 Descending Chicago TRACON
01:39PM 42.0833 -87.9833 270° West 218 251 7,000 -180 Level Chicago TRACON
01:40PM 42.0833 -88.0500 270° West 208 239 6,700 -840 Descending Chicago TRACON
01:41PM 42.1000 -88.1333 285° West 208 239 5,500 -1,140 Descending Chicago TRACON
01:41PM 42.0911 -88.1383 203° Southwest 207 238 5,300 -1,200 Descending Chicago Center
01:42PM 42.0386 -88.1631 199° South 195 224 3,900 -1,140 Descending Chicago Center
01:43PM 42.0025 -88.1189 138° Southeast 202 232 3,000 -600 Descending Chicago Center
01:44PM 42.0000 -88.0833 95° East 196 226 3,000 -420 Level Chicago TRACON
01:45PM 41.9833 -88.0167 109° East 180 207 2,400 -900 Descending Chicago TRACON
01:46PM 41.9833 -87.9500 90° East 140 161 1,300 -1,140 Descending Chicago TRACON
01:48PM 41.9817 -87.9067 135° Southeast  Level Estimated